createdAt,value
2023-04-28T00:01:47.226Z,4.32
2023-04-28T00:04:18.970Z,4.35
2023-04-28T00:06:50.846Z,4.38
2023-04-28T00:09:22.282Z,4.42
2023-04-28T00:11:53.738Z,4.42
2023-04-28T00:14:25.199Z,4.43
2023-04-28T00:16:56.843Z,4.32
2023-04-28T00:19:28.422Z,4.21
2023-04-28T00:21:59.886Z,4.28
2023-04-28T00:24:31.340Z,4.31
2023-04-28T00:27:02.973Z,4.31
2023-04-28T00:29:34.420Z,4.27
2023-04-28T00:32:05.951Z,4.32
2023-04-28T00:34:37.497Z,4.26
2023-04-28T00:37:09.270Z,4.17
2023-04-28T00:39:40.720Z,4.18
2023-04-28T00:42:12.521Z,4.12
2023-04-28T00:44:43.981Z,4.19
2023-04-28T00:47:15.625Z,4.23
2023-04-28T00:49:47.080Z,4.24
2023-04-28T00:52:18.794Z,4.25
2023-04-28T00:54:50.238Z,4.26
2023-04-28T00:57:22.042Z,4.30
2023-04-28T00:59:53.497Z,4.32
2023-04-28T01:02:25.441Z,4.35
2023-04-28T01:04:56.977Z,4.36
2023-04-28T01:07:28.763Z,4.34
2023-04-28T01:10:00.239Z,4.25
2023-04-28T01:12:32.095Z,4.27
2023-04-28T01:15:03.533Z,4.27
2023-04-28T01:17:35.337Z,4.27
2023-04-28T01:20:06.872Z,4.29
2023-04-28T01:22:38.702Z,4.26
2023-04-28T01:25:10.151Z,4.22
2023-04-28T01:27:41.888Z,4.23
2023-04-28T01:30:13.329Z,4.23
2023-04-28T01:32:45.199Z,4.23
2023-04-28T01:35:16.644Z,4.19
2023-04-28T01:37:48.577Z,4.15
2023-04-28T01:40:20.043Z,4.13
2023-04-28T01:42:51.499Z,4.15
2023-04-28T01:45:22.947Z,4.19
2023-04-28T01:47:54.434Z,4.19
2023-04-28T01:50:25.876Z,4.18
2023-04-28T01:52:57.743Z,4.19
2023-04-28T01:55:29.515Z,4.22
2023-04-28T01:58:01.625Z,4.24
2023-04-28T02:00:33.062Z,4.24
2023-04-28T02:03:04.790Z,4.23
2023-04-28T02:05:36.333Z,4.22
2023-04-28T02:08:08.066Z,4.24
2023-04-28T02:10:39.547Z,4.25
2023-04-28T02:13:11.382Z,4.25
2023-04-28T02:15:42.856Z,4.25
2023-04-28T02:18:14.384Z,4.26
2023-04-28T02:20:45.844Z,4.26
2023-04-28T02:23:17.571Z,4.25
2023-04-28T02:25:49.006Z,4.27
2023-04-28T02:28:20.780Z,4.28
2023-04-28T02:30:52.230Z,4.28
2023-04-28T02:33:23.716Z,4.29
2023-04-28T02:35:55.157Z,4.33
2023-04-28T02:38:26.880Z,4.32
2023-04-28T02:40:58.342Z,4.35
2023-04-28T02:43:30.078Z,4.37
2023-04-28T02:46:01.532Z,4.37
2023-04-28T02:48:33.168Z,4.37
2023-04-28T02:51:04.613Z,4.35
2023-04-28T02:53:36.377Z,4.36
2023-04-28T02:56:07.843Z,4.36
2023-04-28T02:58:39.613Z,4.36
2023-04-28T03:01:11.161Z,4.33
2023-04-28T03:03:43.010Z,4.32
2023-04-28T03:06:14.623Z,4.35
2023-04-28T03:08:46.523Z,4.35
2023-04-28T03:11:17.971Z,4.36
2023-04-28T03:13:49.449Z,4.36
2023-04-28T03:16:20.892Z,4.31
2023-04-28T03:18:52.355Z,4.30
2023-04-28T03:21:23.798Z,4.30
2023-04-28T03:23:55.250Z,4.30
2023-04-28T03:26:26.732Z,4.29
2023-04-28T03:28:58.194Z,4.29
2023-04-28T03:31:29.681Z,4.30
2023-04-28T03:34:01.348Z,4.28
2023-04-28T03:36:32.812Z,4.30
2023-04-28T03:39:04.265Z,4.31
2023-04-28T03:41:35.707Z,4.33
2023-04-28T03:44:07.578Z,4.32
2023-04-28T03:46:39.028Z,4.35
2023-04-28T03:49:10.833Z,4.34
2023-04-28T03:51:42.674Z,4.37
2023-04-28T03:54:14.272Z,4.46
2023-04-28T03:56:46.063Z,4.42
2023-04-28T03:59:17.544Z,4.44
2023-04-28T04:01:49.358Z,4.49
2023-04-28T04:04:21.267Z,4.54
2023-04-28T04:06:53.124Z,4.55
2023-04-28T04:09:24.572Z,4.59
2023-04-28T04:11:56.036Z,4.57
2023-04-28T04:14:27.478Z,4.62
2023-04-28T04:16:59.283Z,4.69
2023-04-28T04:19:30.757Z,4.78
2023-04-28T04:22:02.402Z,4.87
2023-04-28T04:24:33.846Z,4.92
2023-04-28T04:27:05.363Z,4.91
2023-04-28T04:29:36.823Z,5.03
2023-04-28T04:32:08.501Z,5.14
2023-04-28T04:34:39.963Z,5.22
2023-04-28T04:37:11.467Z,5.25
2023-04-28T04:39:42.940Z,5.23
2023-04-28T04:42:24.798Z,5.25
2023-04-28T04:44:57.101Z,5.32
2023-04-28T04:47:28.779Z,5.44
2023-04-28T04:50:00.243Z,5.52
2023-04-28T04:52:32.186Z,5.63
2023-04-28T04:55:03.671Z,5.68
2023-04-28T04:57:35.436Z,5.80
2023-04-28T05:00:06.917Z,5.84
2023-04-28T05:02:38.906Z,6.02
2023-04-28T05:05:20.333Z,6.16
2023-04-28T05:07:53.070Z,6.35
2023-04-28T05:10:24.556Z,6.53
2023-04-28T05:12:56.076Z,6.72
2023-04-28T05:15:27.548Z,6.83
2023-04-28T05:17:59.528Z,6.94
2023-04-28T05:20:31.025Z,6.90
2023-04-28T05:23:02.833Z,7.24
2023-04-28T05:25:34.298Z,7.42
2023-04-28T05:28:05.770Z,7.39
2023-04-28T05:30:37.255Z,7.48
2023-04-28T05:33:09.135Z,7.51
2023-04-28T05:35:40.656Z,7.60
2023-04-28T05:38:12.170Z,7.61
2023-04-28T05:40:43.995Z,7.87
2023-04-28T05:43:15.458Z,8.15
2023-04-28T05:45:47.286Z,8.26
2023-04-28T05:48:18.782Z,8.42
2023-04-28T05:50:50.289Z,8.42
2023-04-28T05:53:21.746Z,8.59
2023-04-28T05:55:53.248Z,8.92
2023-04-28T05:58:24.736Z,9.04
2023-04-28T06:00:56.224Z,9.19
2023-04-28T06:03:27.884Z,9.31
2023-04-28T06:05:59.970Z,9.60
2023-04-28T06:08:31.436Z,9.76
2023-04-28T06:11:03.130Z,9.95
2023-04-28T06:13:34.604Z,9.61
2023-04-28T06:16:06.434Z,9.79
2023-04-28T06:18:38.000Z,9.59
2023-04-28T06:21:09.873Z,9.76
2023-04-28T06:23:41.329Z,9.71
2023-04-28T06:26:12.835Z,9.85
2023-04-28T06:28:44.287Z,9.73
2023-04-28T06:31:16.112Z,9.99
2023-04-28T06:33:47.597Z,10.10
2023-04-28T06:36:19.400Z,10.01
2023-04-28T06:38:50.867Z,9.99
2023-04-28T06:41:22.702Z,10.07
2023-04-28T06:43:54.158Z,9.92
2023-04-28T06:46:25.996Z,9.93
2023-04-28T06:48:57.491Z,10.27
2023-04-28T06:51:29.685Z,10.50
2023-04-28T06:54:01.373Z,10.32
2023-04-28T06:56:33.419Z,10.84
2023-04-28T06:59:04.910Z,10.88
2023-04-28T07:01:36.874Z,11.51
2023-04-28T07:04:08.578Z,11.63
2023-04-28T07:06:40.533Z,11.68
2023-04-28T07:09:12.009Z,12.11
2023-04-28T07:11:43.944Z,12.13
2023-04-28T07:14:15.601Z,12.35
2023-04-28T07:16:47.470Z,12.76
2023-04-28T07:19:18.956Z,12.68
2023-04-28T07:21:50.436Z,12.78
2023-04-28T07:24:21.924Z,12.91
2023-04-28T07:26:53.430Z,12.62
2023-04-28T07:29:24.901Z,12.83
2023-04-28T07:31:56.456Z,13.13
2023-04-28T07:34:28.023Z,13.32
2023-04-28T07:36:59.886Z,13.19
2023-04-28T07:39:31.390Z,13.06
2023-04-28T07:42:03.965Z,13.05
2023-04-28T07:44:35.495Z,13.05
2023-04-28T07:47:06.977Z,13.18
2023-04-28T07:49:38.475Z,13.43
2023-04-28T07:52:09.972Z,13.16
2023-04-28T07:54:41.440Z,13.85
2023-04-28T07:57:12.925Z,14.42
2023-04-28T07:59:44.385Z,14.43
2023-04-28T08:02:16.287Z,15.13
2023-04-28T08:04:47.937Z,14.79
2023-04-28T08:07:19.475Z,14.83
2023-04-28T08:09:53.233Z,14.98
2023-04-28T08:12:25.376Z,15.37
2023-04-28T08:14:56.852Z,14.65
2023-04-28T08:17:28.430Z,14.56
2023-04-28T08:19:59.922Z,14.69
2023-04-28T08:22:31.762Z,14.56
2023-04-28T08:25:03.224Z,14.54
2023-04-28T08:27:35.055Z,14.64
2023-04-28T08:30:06.547Z,15.04
2023-04-28T08:32:38.501Z,15.25
2023-04-28T08:35:10.059Z,15.73
2023-04-28T08:37:41.815Z,16.00
2023-04-28T08:40:13.279Z,15.56
2023-04-28T08:42:45.132Z,15.59
2023-04-28T08:45:16.679Z,15.99
2023-04-28T08:47:48.499Z,15.92
2023-04-28T08:50:20.046Z,15.94
2023-04-28T08:52:51.543Z,16.13
2023-04-28T08:55:23.009Z,15.96
2023-04-28T08:57:54.485Z,16.27
2023-04-28T09:00:26.007Z,16.73
2023-04-28T09:02:57.998Z,16.38
2023-04-28T09:05:29.766Z,16.47
2023-04-28T09:08:01.657Z,16.57
2023-04-28T09:10:33.155Z,16.35
2023-04-28T09:13:04.922Z,16.44
2023-04-28T09:15:36.389Z,16.49
2023-04-28T09:18:08.103Z,16.88
2023-04-28T09:20:39.683Z,16.68
2023-04-28T09:23:11.493Z,16.26
2023-04-28T09:25:42.970Z,16.57
2023-04-28T09:28:14.862Z,16.58
2023-04-28T09:30:46.416Z,16.58
2023-04-28T09:33:18.267Z,17.14
2023-04-28T09:35:49.785Z,17.00
2023-04-28T09:38:21.591Z,17.70
2023-04-28T09:40:53.183Z,16.78
2023-04-28T09:43:24.846Z,17.39
2023-04-28T09:45:56.411Z,17.61
2023-04-28T09:48:27.936Z,17.86
2023-04-28T09:50:59.696Z,17.94
2023-04-28T09:53:31.151Z,18.05
2023-04-28T09:56:02.939Z,18.88
2023-04-28T09:58:34.420Z,18.53
2023-04-28T10:01:06.508Z,18.60
2023-04-28T10:03:38.143Z,18.75
2023-04-28T10:06:10.020Z,18.78
2023-04-28T10:08:41.530Z,18.82
2023-04-28T10:11:13.408Z,19.05
2023-04-28T10:13:44.889Z,18.67
2023-04-28T10:16:16.768Z,18.67
2023-04-28T10:18:48.248Z,18.29
2023-04-28T10:21:19.990Z,19.43
2023-04-28T10:23:51.464Z,19.60
2023-04-28T10:26:23.270Z,20.20
2023-04-28T10:28:54.765Z,20.20
2023-04-28T10:31:26.642Z,19.95
2023-04-28T10:33:58.269Z,20.97
2023-04-28T10:36:35.892Z,19.94
2023-04-28T10:39:08.056Z,19.81
2023-04-28T10:41:39.891Z,19.85
2023-04-28T10:44:11.398Z,21.01
2023-04-28T10:46:42.918Z,20.27
2023-04-28T10:49:14.442Z,21.35
2023-04-28T10:51:46.244Z,20.98
2023-04-28T10:54:17.734Z,20.45
2023-04-28T10:56:49.476Z,19.49
2023-04-28T10:59:20.953Z,19.26
2023-04-28T11:01:52.486Z,19.48
2023-04-28T11:04:24.142Z,19.49
2023-04-28T11:06:55.786Z,19.64
2023-04-28T11:09:28.293Z,18.97
2023-04-28T11:12:00.263Z,19.52
2023-04-28T11:14:31.757Z,19.48
2023-04-28T11:17:03.569Z,19.40
2023-04-28T11:19:35.075Z,19.49
2023-04-28T11:22:06.750Z,19.86
2023-04-28T11:24:38.239Z,20.23
2023-04-28T11:27:09.891Z,19.77
2023-04-28T11:29:41.384Z,19.92
2023-04-28T11:32:13.239Z,20.01
2023-04-28T11:34:44.715Z,20.14
2023-04-28T11:37:16.487Z,19.83
2023-04-28T11:39:48.136Z,19.44
2023-04-28T11:42:19.645Z,19.63
2023-04-28T11:44:51.136Z,19.75
2023-04-28T11:47:22.668Z,20.26
2023-04-28T11:49:54.153Z,19.63
2023-04-28T11:52:25.879Z,19.26
2023-04-28T11:54:57.349Z,19.96
2023-04-28T11:57:28.852Z,20.38
2023-04-28T12:00:00.325Z,20.48
2023-04-28T12:02:32.265Z,20.67
2023-04-28T12:05:03.822Z,21.17
2023-04-28T12:07:35.623Z,22.13
2023-04-28T12:10:07.069Z,20.70
2023-04-28T12:15:13.021Z,21.14
2023-04-28T12:17:44.962Z,21.25
2023-04-28T12:20:16.446Z,20.46
2023-04-28T12:22:48.195Z,20.70
2023-04-28T12:25:19.681Z,20.66
2023-04-28T12:27:51.157Z,20.32
2023-04-28T12:30:22.618Z,20.18
2023-04-28T12:32:54.180Z,20.01
2023-04-28T12:35:25.651Z,19.56
2023-04-28T12:37:57.118Z,19.63
2023-04-28T12:40:28.614Z,20.14
2023-04-28T12:43:00.390Z,19.28
2023-04-28T12:45:31.845Z,19.17
2023-04-28T12:48:03.315Z,19.58
2023-04-28T12:50:34.779Z,19.26
2023-04-28T12:53:06.573Z,19.15
2023-04-28T12:55:38.026Z,19.03
2023-04-28T12:58:09.468Z,19.02
2023-04-28T13:00:40.939Z,19.56
2023-04-28T13:03:12.649Z,19.92
2023-04-28T13:05:44.162Z,19.09
2023-04-28T13:08:15.966Z,18.85
2023-04-28T13:10:47.531Z,19.49
2023-04-28T13:13:19.110Z,18.52
2023-04-28T13:15:50.724Z,19.50
2023-04-28T13:18:22.215Z,19.26
2023-04-28T13:20:53.666Z,19.18
2023-04-28T13:23:25.107Z,19.28
2023-04-28T13:25:56.569Z,19.24
2023-04-28T13:28:28.015Z,19.34
2023-04-28T13:30:59.838Z,19.37
2023-04-28T13:33:31.289Z,18.90
2023-04-28T13:36:03.076Z,18.77
2023-04-28T13:38:34.562Z,18.66
2023-04-28T13:41:06.291Z,18.54
2023-04-28T13:43:37.749Z,18.31
2023-04-28T13:46:09.449Z,18.59
2023-04-28T13:48:40.959Z,18.40
2023-04-28T13:51:12.892Z,17.93
2023-04-28T13:53:44.338Z,17.71
2023-04-28T13:56:16.195Z,17.96
2023-04-28T13:58:47.643Z,17.49
2023-04-28T14:01:19.149Z,17.55
2023-04-28T14:03:50.760Z,17.17
2023-04-28T14:06:22.611Z,17.56
2023-04-28T14:08:54.194Z,17.49
2023-04-28T14:11:26.020Z,17.59
2023-04-28T14:13:57.576Z,17.48
2023-04-28T14:16:29.248Z,17.11
2023-04-28T14:19:00.702Z,17.15
2023-04-28T14:21:32.478Z,17.12
2023-04-28T14:24:03.990Z,16.92
2023-04-28T14:26:35.798Z,16.62
2023-04-28T14:29:07.275Z,16.62
2023-04-28T14:31:38.991Z,16.80
2023-04-28T14:34:10.476Z,16.83
2023-04-28T14:36:42.236Z,16.84
2023-04-28T14:39:13.705Z,16.51
2023-04-28T14:41:45.473Z,16.67
2023-04-28T14:44:16.943Z,16.63
2023-04-28T14:46:48.671Z,16.82
2023-04-28T14:49:20.143Z,16.64
2023-04-28T14:51:51.616Z,16.54
2023-04-28T14:54:23.082Z,16.32
2023-04-28T14:56:54.568Z,16.20
2023-04-28T14:59:26.000Z,16.15
2023-04-28T15:01:57.539Z,16.06
2023-04-28T15:04:29.246Z,16.03
2023-04-28T15:07:01.147Z,15.92
2023-04-28T15:09:32.607Z,15.66
2023-04-28T15:12:04.287Z,15.56
2023-04-28T15:14:35.753Z,15.81
2023-04-28T15:17:07.507Z,15.57
2023-04-28T15:19:38.944Z,15.51
2023-04-28T15:22:10.384Z,15.52
2023-04-28T15:24:41.814Z,15.49
2023-04-28T15:27:13.584Z,15.16
2023-04-28T15:29:45.036Z,15.21
2023-04-28T15:32:16.506Z,15.17
2023-04-28T15:34:48.296Z,15.08
2023-04-28T15:37:20.353Z,15.25
2023-04-28T15:39:51.799Z,15.07
2023-04-28T15:42:23.712Z,15.22
2023-04-28T15:44:55.172Z,15.37
2023-04-28T15:47:26.629Z,15.46
2023-04-28T15:49:58.068Z,15.27
2023-04-28T15:52:29.508Z,15.27
2023-04-28T15:55:01.004Z,15.23
2023-04-28T15:57:32.675Z,15.22
2023-04-28T16:00:04.141Z,15.25
2023-04-28T16:02:35.977Z,15.11
2023-04-28T16:05:07.637Z,15.10
2023-04-28T16:07:39.302Z,14.77
2023-04-28T16:10:10.750Z,14.85
2023-04-28T16:12:42.558Z,14.85
2023-04-28T16:15:14.075Z,14.91
2023-04-28T16:17:45.907Z,15.04
2023-04-28T16:20:17.367Z,15.07
2023-04-28T16:22:49.170Z,15.13
2023-04-28T16:25:20.608Z,15.17
2023-04-28T16:27:52.079Z,14.97
2023-04-28T16:30:23.533Z,15.17
2023-04-28T16:32:55.028Z,15.26
2023-04-28T16:35:26.499Z,15.26
2023-04-28T16:37:58.429Z,15.27
2023-04-28T16:40:30.155Z,15.13
2023-04-28T16:43:01.935Z,15.07
2023-04-28T16:45:33.396Z,14.74
2023-04-28T16:48:04.923Z,14.80
2023-04-28T16:50:37.375Z,14.88
2023-04-28T16:53:10.408Z,14.66
2023-04-28T16:55:41.873Z,14.63
2023-04-28T16:58:13.340Z,14.63
2023-04-28T17:00:44.775Z,14.58
2023-04-28T17:03:16.670Z,14.58
2023-04-28T17:05:48.267Z,14.50
2023-04-28T17:08:20.111Z,14.39
2023-04-28T17:10:51.549Z,14.40
2023-04-28T17:13:23.285Z,14.33
2023-04-28T17:15:54.834Z,14.28
2023-04-28T17:18:26.521Z,14.18
2023-04-28T17:20:57.969Z,14.11
2023-04-28T17:23:29.767Z,14.08
2023-04-28T17:26:01.235Z,14.06
2023-04-28T17:28:33.168Z,14.06
2023-04-28T17:31:04.644Z,14.00
2023-04-28T17:33:36.481Z,13.93
2023-04-28T17:36:07.921Z,13.92
2023-04-28T17:38:39.762Z,13.85
2023-04-28T17:41:11.256Z,13.70
2023-04-28T17:43:43.053Z,13.74
2023-04-28T17:46:14.604Z,13.67
2023-04-28T17:48:46.483Z,13.58
2023-04-28T17:51:17.960Z,13.56
2023-04-28T17:53:49.434Z,13.47
2023-04-28T17:56:20.871Z,13.50
2023-04-28T17:58:52.443Z,13.45
2023-04-28T18:01:24.238Z,13.43
2023-04-28T18:03:55.702Z,13.44
2023-04-28T18:06:27.561Z,13.39
2023-04-28T18:08:59.027Z,13.46
2023-04-28T18:11:30.868Z,13.43
2023-04-28T18:14:02.352Z,13.35
2023-04-28T18:16:33.865Z,13.32
2023-04-28T18:19:05.356Z,13.31
2023-04-28T18:21:36.823Z,13.28
2023-04-28T18:24:08.365Z,13.30
2023-04-28T18:26:39.880Z,13.24
2023-04-28T18:29:11.370Z,13.18
2023-04-28T18:31:42.871Z,13.13
2023-04-28T18:34:14.370Z,13.13
2023-04-28T18:36:46.138Z,13.03
2023-04-28T18:39:17.598Z,13.01
2023-04-28T18:41:49.119Z,13.07
2023-04-28T18:44:20.579Z,13.01
2023-04-28T18:46:52.336Z,13.01
2023-04-28T18:49:23.808Z,13.00
2023-04-28T18:51:55.280Z,12.93
2023-04-28T18:54:26.728Z,12.91
2023-04-28T18:56:58.631Z,12.80
2023-04-28T18:59:30.081Z,12.78
2023-04-28T19:02:01.534Z,12.82
2023-04-28T19:04:33.091Z,12.82
2023-04-28T19:07:05.022Z,12.80
2023-04-28T19:09:36.497Z,12.79
2023-04-28T19:12:07.968Z,12.78
2023-04-28T19:14:39.419Z,12.73
2023-04-28T19:17:11.175Z,12.76
2023-04-28T19:19:42.739Z,12.71
2023-04-28T19:22:14.351Z,12.68
2023-04-28T19:24:45.803Z,12.67
2023-04-28T19:27:17.577Z,12.67
2023-04-28T19:29:49.193Z,12.57
2023-04-28T19:32:21.246Z,12.60
2023-04-28T19:34:52.747Z,12.57
2023-04-28T19:37:24.538Z,12.53
2023-04-28T19:39:55.993Z,12.48
2023-04-28T19:42:27.923Z,12.48
2023-04-28T19:44:59.478Z,12.42
2023-04-28T19:47:30.965Z,12.47
2023-04-28T19:50:02.427Z,12.45
2023-04-28T19:52:34.067Z,12.47
2023-04-28T19:55:05.575Z,12.50
2023-04-28T19:57:37.040Z,12.48
2023-04-28T20:00:08.501Z,12.48
2023-04-28T20:02:40.252Z,12.57
2023-04-28T20:05:11.802Z,12.60
2023-04-28T20:07:43.298Z,12.59
2023-04-28T20:10:14.742Z,12.53
2023-04-28T20:12:46.207Z,12.57
2023-04-28T20:15:17.657Z,12.58
2023-04-28T20:17:49.305Z,12.60
2023-04-28T20:20:20.804Z,12.65
2023-04-28T20:22:52.286Z,12.69
2023-04-28T20:25:23.799Z,12.70
2023-04-28T20:27:55.262Z,12.60
2023-04-28T20:30:26.723Z,11.53
2023-04-28T20:32:58.493Z,12.64
2023-04-28T20:35:29.996Z,12.61
2023-04-28T20:38:01.812Z,12.57
2023-04-28T20:40:33.266Z,12.53
2023-04-28T20:43:04.740Z,12.45
2023-04-28T20:45:36.254Z,12.39
2023-04-28T20:48:07.797Z,12.32
2023-04-28T20:50:39.282Z,12.26
2023-04-28T20:53:11.261Z,12.23
2023-04-28T20:55:42.728Z,12.26
2023-04-28T20:58:14.250Z,12.16
2023-04-28T21:00:45.775Z,12.15
2023-04-28T21:03:17.887Z,12.09
2023-04-28T21:05:49.483Z,12.13
2023-04-28T21:08:20.970Z,12.11
2023-04-28T21:10:52.420Z,12.09
2023-04-28T21:13:24.218Z,12.11
2023-04-28T21:15:55.685Z,12.12
2023-04-28T21:18:27.498Z,12.19
2023-04-28T21:20:59.030Z,12.19
2023-04-28T21:23:30.958Z,12.19
2023-04-28T21:26:02.425Z,12.20
2023-04-28T21:28:34.221Z,12.18
2023-04-28T21:31:05.718Z,12.20
2023-04-28T21:33:37.558Z,12.17
2023-04-28T21:36:09.046Z,12.14
2023-04-28T21:38:40.949Z,12.15
2023-04-28T21:41:12.438Z,12.14
2023-04-28T21:43:43.973Z,12.09
2023-04-28T21:46:15.478Z,12.10
2023-04-28T21:48:47.305Z,12.08
2023-04-28T21:51:18.754Z,12.10
2023-04-28T21:53:50.233Z,12.03
2023-04-28T21:56:21.690Z,11.96
2023-04-28T21:58:53.149Z,12.04
2023-04-28T22:01:24.795Z,12.04
2023-04-28T22:03:56.448Z,11.04
2023-04-28T22:06:28.332Z,12.01
2023-04-28T22:08:59.779Z,12.00
2023-04-28T22:11:31.450Z,11.91
2023-04-28T22:14:02.915Z,11.97
2023-04-28T22:16:34.654Z,11.94
2023-04-28T22:19:06.126Z,11.92
2023-04-28T22:21:37.979Z,11.90
2023-04-28T22:24:09.433Z,11.87
2023-04-28T22:26:41.037Z,11.89
2023-04-28T22:29:12.483Z,11.93
2023-04-28T22:31:44.354Z,11.91
2023-04-28T22:34:15.937Z,11.87
2023-04-28T22:36:47.441Z,11.85
2023-04-28T22:39:18.957Z,11.81
2023-04-28T22:41:50.462Z,11.71
2023-04-28T22:44:21.922Z,11.82
2023-04-28T22:46:53.532Z,11.78
2023-04-28T22:49:25.112Z,11.83
2023-04-28T22:51:56.582Z,11.83
2023-04-28T22:54:28.009Z,11.75
2023-04-28T22:56:59.814Z,11.70
2023-04-28T22:59:31.280Z,11.77
2023-04-28T23:02:02.776Z,11.71
2023-04-28T23:04:34.351Z,11.68
2023-04-28T23:07:06.464Z,11.69
2023-04-28T23:09:37.973Z,11.71
2023-04-28T23:12:09.810Z,11.72
2023-04-28T23:14:41.268Z,11.79
2023-04-28T23:17:13.082Z,11.83
2023-04-28T23:19:44.537Z,11.86
2023-04-28T23:22:16.214Z,11.83
2023-04-28T23:24:47.688Z,11.82
2023-04-28T23:27:19.479Z,11.77
2023-04-28T23:29:51.248Z,11.78
2023-04-28T23:32:23.306Z,11.76
2023-04-28T23:34:54.783Z,11.80
2023-04-28T23:37:26.561Z,11.83
2023-04-28T23:39:58.008Z,11.80
2023-04-28T23:42:29.760Z,11.81
2023-04-28T23:45:01.205Z,11.81
2023-04-28T23:47:33.020Z,11.78
2023-04-28T23:50:04.518Z,11.78
2023-04-28T23:52:35.965Z,11.74
2023-04-28T23:55:07.433Z,11.71
2023-04-28T23:57:39.194Z,11.78
